createdAt,value
2019-04-21T00:00:29.786Z,14.30
2019-04-21T00:03:00.765Z,15.00
2019-04-21T00:05:53.274Z,13.60
2019-04-21T00:08:27.836Z,15.73
2019-04-21T00:11:01.345Z,17.20
2019-04-21T00:13:17.909Z,14.57
2019-04-21T00:15:42.306Z,14.50
2019-04-21T00:18:21.712Z,15.73
2019-04-21T00:20:55.217Z,15.23
2019-04-21T00:23:41.221Z,15.70
2019-04-21T00:26:05.198Z,15.63
2019-04-21T00:28:58.120Z,16.00
2019-04-21T00:31:12.398Z,18.30
2019-04-21T00:33:30.031Z,17.10
2019-04-21T00:36:05.093Z,18.37
2019-04-21T00:38:59.090Z,16.53
2019-04-21T00:41:23.506Z,14.70
2019-04-21T00:43:41.332Z,15.30
2019-04-21T00:46:08.597Z,15.60
2019-04-21T00:48:52.778Z,13.70
2019-04-21T00:53:57.923Z,15.03
2019-04-21T00:56:27.693Z,15.27
2019-04-21T00:58:59.529Z,15.03
2019-04-21T01:01:26.751Z,16.87
2019-04-21T01:03:58.265Z,17.77
2019-04-21T01:06:28.656Z,16.10
2019-04-21T01:08:59.056Z,17.33
2019-04-21T01:11:42.564Z,15.57
2019-04-21T01:14:05.178Z,16.10
2019-04-21T01:16:33.234Z,17.03
2019-04-21T01:19:02.279Z,16.90
2019-04-21T01:21:14.257Z,18.00
2019-04-21T01:23:42.545Z,16.40
2019-04-21T01:26:25.092Z,16.73
2019-04-21T01:28:59.987Z,14.40
2019-04-21T01:31:30.327Z,15.83
2019-04-21T01:34:05.647Z,15.60
2019-04-21T01:36:29.842Z,14.10
2019-04-21T01:39:05.269Z,14.57
2019-04-21T01:41:39.116Z,14.97
2019-04-21T01:44:07.550Z,13.33
2019-04-21T01:46:37.156Z,12.77
2019-04-21T01:49:03.339Z,14.43
2019-04-21T01:51:45.421Z,15.57
2019-04-21T01:54:14.633Z,16.13
2019-04-21T01:56:49.784Z,15.77
2019-04-21T01:59:06.619Z,14.80
2019-04-21T02:01:52.744Z,16.63
2019-04-21T02:04:24.136Z,15.40
2019-04-21T02:06:54.930Z,15.07
2019-04-21T02:09:19.758Z,13.87
2019-04-21T02:11:56.510Z,15.70
2019-04-21T02:14:31.166Z,13.40
2019-04-21T02:16:54.026Z,13.73
2019-04-21T02:19:29.836Z,15.17
2019-04-21T02:21:49.207Z,14.20
2019-04-21T02:24:38.746Z,14.90
2019-04-21T02:26:59.492Z,15.00
2019-04-21T02:29:37.726Z,15.67
2019-04-21T02:32:11.766Z,17.13
2019-04-21T02:34:57.502Z,17.47
2019-04-21T02:37:28.516Z,18.53
2019-04-21T02:42:09.720Z,15.57
2019-04-21T02:47:21.218Z,17.60
2019-04-21T02:52:20.084Z,16.80
2019-04-21T02:57:17.862Z,16.70
2019-04-21T03:00:06.987Z,15.27
2019-04-21T03:02:25.792Z,16.07
2019-04-21T03:05:02.350Z,14.57
2019-04-21T03:07:45.607Z,15.50
2019-04-21T03:10:12.144Z,16.03
2019-04-21T03:12:29.666Z,17.30
2019-04-21T03:17:43.990Z,17.17
2019-04-21T03:20:12.478Z,16.90
2019-04-21T03:22:42.371Z,16.57
2019-04-21T03:25:33.784Z,16.40
2019-04-21T03:30:26.198Z,15.80
2019-04-21T03:35:44.000Z,16.70
2019-04-21T03:40:16.691Z,17.07
2019-04-21T03:45:23.706Z,15.77
2019-04-21T03:47:44.901Z,15.23
2019-04-21T03:50:20.538Z,16.17
2019-04-21T03:53:00.812Z,16.17
2019-04-21T03:55:48.729Z,16.40
2019-04-21T04:06:03.369Z,15.60
2019-04-21T04:08:44.716Z,12.93
2019-04-21T04:11:14.840Z,16.20
2019-04-21T04:13:37.542Z,14.30
2019-04-21T04:18:51.207Z,16.33
2019-04-21T04:21:12.695Z,16.73
2019-04-21T04:23:41.688Z,18.17
2019-04-21T04:26:07.473Z,15.53
2019-04-21T04:28:49.886Z,16.13
2019-04-21T04:31:18.047Z,17.70
2019-04-21T04:33:49.729Z,16.50
2019-04-21T04:36:13.122Z,15.60
2019-04-21T04:38:56.313Z,16.20
2019-04-21T04:41:24.928Z,15.57
2019-04-21T04:43:54.631Z,15.07
2019-04-21T04:46:22.420Z,14.97
2019-04-21T04:49:05.289Z,15.17
2019-04-21T04:51:36.722Z,16.53
2019-04-21T04:56:47.793Z,16.40
2019-04-21T05:03:56.935Z,15.20
2019-04-21T05:09:15.151Z,18.10
2019-04-21T05:11:50.485Z,16.90
2019-04-21T05:14:11.637Z,16.30
2019-04-21T05:16:43.251Z,14.73
2019-04-21T05:21:34.303Z,15.30
2019-04-21T05:26:23.012Z,14.40
2019-04-21T05:28:53.989Z,16.20
2019-04-21T05:31:43.009Z,16.67
2019-04-21T05:34:14.963Z,16.50
2019-04-21T05:36:53.852Z,15.30
2019-04-21T05:39:29.648Z,14.20
2019-04-21T05:41:54.238Z,15.00
2019-04-21T05:44:44.471Z,15.80
2019-04-21T05:47:17.288Z,15.20
2019-04-21T05:49:41.480Z,14.83
2019-04-21T05:52:08.234Z,14.80
2019-04-21T05:54:53.048Z,15.83
2019-04-21T05:57:11.817Z,17.47
2019-04-21T05:59:43.556Z,16.60
2019-04-21T06:02:24.287Z,14.40
2019-04-21T06:12:23.792Z,16.40
2019-04-21T06:14:54.578Z,14.63
2019-04-21T06:17:33.141Z,16.77
2019-04-21T06:19:55.888Z,17.97
2019-04-21T06:22:19.159Z,16.60
2019-04-21T06:25:24.308Z,16.20
2019-04-21T06:27:40.364Z,17.07
2019-04-21T06:32:38.393Z,16.13
2019-04-21T06:35:13.040Z,11.53
2019-04-21T06:37:47.088Z,8.23
2019-04-21T06:42:42.971Z,8.10
2019-04-21T06:45:12.299Z,7.93
2019-04-21T06:47:47.214Z,8.73
2019-04-21T06:50:20.630Z,7.70
2019-04-21T06:52:49.996Z,8.37
2019-04-21T06:55:15.264Z,7.70
2019-04-21T06:57:45.726Z,7.63
2019-04-21T07:00:11.818Z,7.90
2019-04-21T07:03:10.365Z,8.17
2019-04-21T07:05:20.427Z,6.63
2019-04-21T07:07:55.194Z,7.43
2019-04-21T07:10:22.035Z,7.40
2019-04-21T07:12:47.865Z,9.00
2019-04-21T07:15:28.342Z,7.30
2019-04-21T07:17:54.160Z,10.50
2019-04-21T07:20:21.777Z,15.83
2019-04-21T07:22:56.958Z,9.17
2019-04-21T07:25:29.632Z,8.83
2019-04-21T07:27:52.769Z,7.97
2019-04-21T07:30:31.145Z,8.27
2019-04-21T07:33:08.471Z,6.83
2019-04-21T07:35:31.992Z,6.77
2019-04-21T07:38:01.199Z,6.10
2019-04-21T07:40:30.476Z,5.87
2019-04-21T07:42:57.865Z,6.13
2019-04-21T07:45:27.835Z,6.13
2019-04-21T07:48:01.577Z,5.87
2019-04-21T07:50:38.241Z,6.80
2019-04-21T07:53:22.244Z,6.73
2019-04-21T07:58:17.843Z,5.20
2019-04-21T08:00:50.717Z,6.70
2019-04-21T08:03:24.727Z,6.10
2019-04-21T08:05:53.698Z,6.27
2019-04-21T08:08:18.589Z,5.87
2019-04-21T08:10:53.650Z,7.17
2019-04-21T08:13:31.590Z,6.90
2019-04-21T08:15:52.938Z,6.03
2019-04-21T08:18:28.648Z,7.50
2019-04-21T08:20:55.949Z,6.50
2019-04-21T08:23:25.661Z,6.73
2019-04-21T08:26:04.784Z,8.10
2019-04-21T08:28:35.101Z,8.00
2019-04-21T08:31:01.628Z,7.97
2019-04-21T08:38:35.650Z,8.90
2019-04-21T08:41:11.072Z,8.83
2019-04-21T08:46:05.425Z,9.23
2019-04-21T08:48:37.567Z,9.17
2019-04-21T08:51:23.977Z,9.50
2019-04-21T08:53:42.728Z,8.77
2019-04-21T09:01:36.886Z,8.70
2019-04-21T09:04:06.045Z,8.90
2019-04-21T09:06:55.221Z,9.63
2019-04-21T09:09:11.846Z,10.00
2019-04-21T09:11:34.821Z,8.70
2019-04-21T09:14:07.820Z,9.93
2019-04-21T09:16:39.698Z,9.13
2019-04-21T09:19:04.492Z,8.30
2019-04-21T09:21:46.961Z,8.60
2019-04-21T09:24:18.863Z,9.97
2019-04-21T09:26:48.104Z,9.13
2019-04-21T09:29:13.632Z,8.70
2019-04-21T09:49:05.517Z,7.20
2019-04-21T09:51:32.645Z,8.83
2019-04-21T09:54:09.842Z,7.90
2019-04-21T09:56:41.440Z,8.70
2019-04-21T09:59:13.212Z,8.10
2019-04-21T10:01:49.086Z,8.43
2019-04-21T10:04:07.677Z,7.90
2019-04-21T10:06:37.318Z,7.80
2019-04-21T10:09:11.111Z,7.30
2019-04-21T10:11:39.038Z,8.63
2019-04-21T10:14:07.980Z,7.97
2019-04-21T10:16:42.786Z,8.27
2019-04-21T10:19:13.091Z,8.07
2019-04-21T10:21:42.338Z,7.47
2019-04-21T10:24:12.542Z,8.00
2019-04-21T10:26:42.987Z,7.97
2019-04-21T10:29:18.267Z,7.40
2019-04-21T10:31:46.797Z,7.40
2019-04-21T10:34:17.043Z,7.90
2019-04-21T10:36:47.028Z,7.10
2019-04-21T10:39:17.879Z,7.40
2019-04-21T10:41:47.826Z,7.60
2019-04-21T10:44:17.111Z,7.07
2019-04-21T10:46:48.659Z,6.77
2019-04-21T10:49:17.172Z,7.23
2019-04-21T10:51:46.772Z,7.30
2019-04-21T10:54:17.800Z,7.70
2019-04-21T10:56:47.927Z,7.57
2019-04-21T10:59:18.399Z,7.40
2019-04-21T11:01:50.452Z,7.37
2019-04-21T11:04:29.693Z,8.10
2019-04-21T11:06:57.092Z,8.23
2019-04-21T11:09:26.430Z,8.47
2019-04-21T11:11:55.774Z,7.60
2019-04-21T11:14:25.357Z,8.10
2019-04-21T11:16:56.574Z,8.70
2019-04-21T11:19:25.908Z,7.60
2019-04-21T11:21:54.879Z,5.93
2019-04-21T11:24:25.032Z,7.60
2019-04-21T11:26:54.257Z,6.00
2019-04-21T11:29:23.404Z,6.57
2019-04-21T11:31:56.990Z,7.00
2019-04-21T11:34:27.287Z,6.80
2019-04-21T11:36:56.852Z,6.77
2019-04-21T11:39:39.113Z,6.53
2019-04-21T11:41:59.589Z,6.80
2019-04-21T11:44:30.948Z,6.30
2019-04-21T11:47:00.557Z,6.80
2019-04-21T11:49:32.031Z,6.30
2019-04-21T11:52:00.789Z,6.80
2019-04-21T11:54:30.957Z,6.70
2019-04-21T11:57:03.495Z,6.30
2019-04-21T11:59:30.902Z,6.57
2019-04-21T12:02:01.454Z,5.70
2019-04-21T12:04:31.678Z,5.93
2019-04-21T12:07:01.888Z,6.47
2019-04-21T12:09:31.186Z,6.00
2019-04-21T12:12:01.225Z,6.27
2019-04-21T12:14:30.308Z,6.40
2019-04-21T12:16:59.350Z,6.57
2019-04-21T12:19:30.539Z,6.30
2019-04-21T12:22:08.801Z,6.40
2019-04-21T12:24:34.649Z,6.83
2019-04-21T12:27:05.732Z,6.30
2019-04-21T12:29:35.593Z,6.53
2019-04-21T12:32:07.680Z,5.93
2019-04-21T12:34:36.998Z,7.00
2019-04-21T12:37:06.696Z,6.00
2019-04-21T12:39:36.916Z,6.23
2019-04-21T12:42:06.755Z,6.10
2019-04-21T12:44:37.175Z,7.60
2019-04-21T12:47:07.849Z,6.83
2019-04-21T12:49:38.087Z,6.10
2019-04-21T12:52:07.584Z,7.10
2019-04-21T12:54:37.628Z,5.90
2019-04-21T12:57:07.674Z,6.10
2019-04-21T12:59:39.607Z,6.13
2019-04-21T13:02:09.606Z,6.43
2019-04-21T13:04:40.060Z,5.93
2019-04-21T13:07:09.957Z,6.10
2019-04-21T13:09:40.191Z,5.70
2019-04-21T13:12:11.090Z,6.50
2019-04-21T13:14:40.238Z,5.80
2019-04-21T13:17:09.857Z,6.30
2019-04-21T13:19:39.600Z,6.00
2019-04-21T13:22:09.975Z,6.00
2019-04-21T13:24:39.950Z,6.00
2019-04-21T13:27:11.328Z,6.53
2019-04-21T13:29:41.953Z,5.83
2019-04-21T13:32:12.452Z,5.47
2019-04-21T13:34:42.093Z,6.13
2019-04-21T13:37:11.946Z,6.67
2019-04-21T13:40:09.993Z,5.43
2019-04-21T13:42:24.056Z,5.50
2019-04-21T13:44:46.623Z,5.80
2019-04-21T13:47:16.797Z,5.60
2019-04-21T13:49:47.513Z,5.87
2019-04-21T13:52:18.501Z,5.27
2019-04-21T13:54:49.537Z,5.10
2019-04-21T13:57:18.861Z,7.93
2019-04-21T13:59:49.384Z,5.77
2019-04-21T14:02:18.637Z,5.67
2019-04-21T14:04:47.712Z,6.20
2019-04-21T14:07:16.745Z,5.20
2019-04-21T14:09:55.366Z,4.90
2019-04-21T14:12:17.199Z,4.87
2019-04-21T14:14:48.271Z,4.77
2019-04-21T14:17:19.085Z,5.20
2019-04-21T14:19:48.992Z,5.27
2019-04-21T14:22:20.187Z,5.20
2019-04-21T14:24:49.962Z,5.20
2019-04-21T14:27:20.580Z,4.37
2019-04-21T14:29:51.307Z,4.37
2019-04-21T14:32:20.428Z,4.93
2019-04-21T14:34:51.914Z,4.20
2019-04-21T14:37:22.483Z,4.57
2019-04-21T14:40:01.971Z,5.67
2019-04-21T14:42:48.164Z,4.70
2019-04-21T14:45:32.663Z,4.90
2019-04-21T14:48:23.122Z,4.87
2019-04-21T14:51:06.602Z,4.43
2019-04-21T14:53:41.532Z,4.97
2019-04-21T14:56:11.150Z,4.10
2019-04-21T14:58:43.316Z,4.70
2019-04-21T15:01:13.659Z,5.20
2019-04-21T15:03:43.728Z,4.27
2019-04-21T15:06:13.579Z,3.43
2019-04-21T15:08:43.324Z,5.03
2019-04-21T15:11:13.874Z,4.53
2019-04-21T15:13:43.973Z,4.07
2019-04-21T15:16:14.959Z,4.07
2019-04-21T15:18:44.557Z,4.00
2019-04-21T15:21:15.356Z,3.70
2019-04-21T15:23:46.595Z,4.27
2019-04-21T15:26:15.985Z,3.87
2019-04-21T15:28:46.685Z,3.90
2019-04-21T15:31:28.678Z,3.80
2019-04-21T15:33:59.036Z,5.07
2019-04-21T15:36:31.845Z,3.70
2019-04-21T15:39:01.517Z,3.33
2019-04-21T15:41:32.401Z,3.77
2019-04-21T15:44:03.084Z,3.57
2019-04-21T15:46:35.143Z,2.93
2019-04-21T15:49:05.008Z,2.97
2019-04-21T15:51:35.784Z,4.10
2019-04-21T15:54:06.658Z,3.93
2019-04-21T15:56:38.657Z,3.10
2019-04-21T15:59:16.574Z,3.33
2019-04-21T16:01:50.713Z,3.73
2019-04-21T16:04:20.892Z,3.47
2019-04-21T16:06:50.505Z,3.30
2019-04-21T16:09:25.366Z,3.70
2019-04-21T16:11:53.716Z,3.23
2019-04-21T16:14:22.825Z,4.00
2019-04-21T16:16:53.675Z,4.10
2019-04-21T16:19:23.281Z,3.33
2019-04-21T16:21:54.504Z,3.70
2019-04-21T16:24:25.650Z,6.10
2019-04-21T16:26:56.539Z,4.30
2019-04-21T16:29:27.140Z,3.90
2019-04-21T16:31:57.365Z,3.10
2019-04-21T16:34:37.863Z,5.33
2019-04-21T16:36:59.307Z,3.95
2019-04-21T16:39:29.458Z,5.10
2019-04-21T16:42:00.302Z,3.97
2019-04-21T16:44:31.177Z,4.37
2019-04-21T16:47:01.385Z,3.70
2019-04-21T16:49:31.750Z,4.50
2019-04-21T16:52:09.911Z,4.20
2019-04-21T16:54:41.919Z,4.17
2019-04-21T16:57:17.744Z,4.60
2019-04-21T16:59:50.648Z,3.83
2019-04-21T17:02:20.616Z,3.93
2019-04-21T17:04:52.156Z,3.97
2019-04-21T17:07:22.025Z,3.80
2019-04-21T17:09:52.722Z,3.87
2019-04-21T17:12:24.555Z,3.67
2019-04-21T17:15:10.378Z,3.83
2019-04-21T17:17:50.872Z,3.67
2019-04-21T17:20:17.209Z,3.77
2019-04-21T17:22:33.460Z,3.80
2019-04-21T17:25:04.434Z,3.70
2019-04-21T17:27:36.767Z,4.53
2019-04-21T17:30:10.705Z,4.03
2019-04-21T17:32:46.964Z,3.50
2019-04-21T17:35:12.139Z,3.97
2019-04-21T17:37:42.324Z,4.13
2019-04-21T17:40:13.558Z,3.77
2019-04-21T17:42:49.267Z,4.43
2019-04-21T17:45:17.185Z,3.83
2019-04-21T17:47:54.646Z,4.20
2019-04-21T17:50:21.014Z,4.13
2019-04-21T17:53:16.207Z,3.97
2019-04-21T17:56:05.094Z,4.60
2019-04-21T17:58:31.062Z,23.83
2019-04-21T18:01:20.899Z,15.20
2019-04-21T18:04:01.536Z,12.73
2019-04-21T18:06:19.426Z,10.60
2019-04-21T18:08:55.211Z,7.17
2019-04-21T18:11:15.953Z,6.63
2019-04-21T18:13:37.671Z,7.60
2019-04-21T18:16:19.210Z,15.90
2019-04-21T18:18:39.081Z,28.47
2019-04-21T18:21:10.207Z,5.83
2019-04-21T18:23:52.048Z,7.13
2019-04-21T18:26:25.858Z,7.23
2019-04-21T18:28:44.499Z,7.40
2019-04-21T18:31:16.408Z,6.50
2019-04-21T18:33:49.483Z,22.80
2019-04-21T18:36:39.539Z,21.20
2019-04-21T18:39:43.704Z,5.27
2019-04-21T18:42:21.309Z,11.97
2019-04-21T18:45:22.210Z,6.37
2019-04-21T18:47:31.601Z,6.27
2019-04-21T18:49:44.381Z,6.30
2019-04-21T18:52:40.565Z,6.67
2019-04-21T18:55:10.816Z,4.60
2019-04-21T18:57:35.281Z,4.60
2019-04-21T18:59:59.438Z,5.47
2019-04-21T19:02:38.460Z,4.87
2019-04-21T19:05:04.353Z,4.53
2019-04-21T19:07:53.208Z,5.20
2019-04-21T19:13:20.522Z,5.40
2019-04-21T19:15:22.616Z,5.20
2019-04-21T19:18:28.274Z,5.07
2019-04-21T19:20:29.844Z,5.67
2019-04-21T19:22:51.800Z,5.00
2019-04-21T19:25:25.839Z,5.23
2019-04-21T19:28:04.630Z,5.00
2019-04-21T19:30:39.943Z,5.37
2019-04-21T19:33:07.242Z,5.10
2019-04-21T19:35:17.203Z,5.20
2019-04-21T19:37:53.987Z,4.97
2019-04-21T19:40:35.358Z,5.13
2019-04-21T19:43:00.375Z,4.83
2019-04-21T19:45:35.423Z,4.63
2019-04-21T19:48:09.064Z,4.50
2019-04-21T19:50:43.870Z,5.67
2019-04-21T19:53:03.489Z,5.03
2019-04-21T19:55:24.311Z,5.03
2019-04-21T19:57:54.772Z,5.83
2019-04-21T20:00:26.583Z,5.20
2019-04-21T20:02:56.629Z,4.97
2019-04-21T20:05:36.087Z,5.10
2019-04-21T20:08:11.334Z,5.57
2019-04-21T20:10:50.425Z,5.87
2019-04-21T20:13:25.928Z,6.00
2019-04-21T20:15:50.996Z,5.50
2019-04-21T20:18:16.494Z,5.00
2019-04-21T20:20:35.231Z,6.03
2019-04-21T20:23:08.904Z,5.37
2019-04-21T20:25:45.321Z,5.63
2019-04-21T20:28:16.064Z,5.93
2019-04-21T20:30:58.991Z,5.25
2019-04-21T20:36:04.609Z,4.80
2019-04-21T20:38:26.435Z,4.90
2019-04-21T20:40:50.999Z,4.80
2019-04-21T20:46:03.728Z,5.50
2019-04-21T20:48:29.687Z,5.30
2019-04-21T20:51:05.173Z,5.60
2019-04-21T20:53:34.311Z,5.20
2019-04-21T20:55:59.203Z,5.77
2019-04-21T20:58:34.607Z,5.47
2019-04-21T21:01:25.695Z,5.73
2019-04-21T21:03:39.088Z,6.50
2019-04-21T21:06:08.151Z,5.67
2019-04-21T21:08:44.601Z,6.60
2019-04-21T21:11:08.202Z,6.47
2019-04-21T21:13:47.729Z,6.67
2019-04-21T21:16:21.649Z,6.43
2019-04-21T21:21:20.619Z,6.80
2019-04-21T21:23:52.757Z,6.45
2019-04-21T21:26:26.865Z,6.43
2019-04-21T21:28:51.423Z,5.13
2019-04-21T21:31:24.607Z,6.00
2019-04-21T21:36:24.090Z,5.97
2019-04-21T21:38:59.482Z,6.23
2019-04-21T21:41:21.621Z,5.80
2019-04-21T21:43:42.163Z,5.70
2019-04-21T21:46:28.618Z,6.20
2019-04-21T21:48:59.014Z,6.40
2019-04-21T21:51:32.587Z,7.50
2019-04-21T21:53:46.183Z,6.83
2019-04-21T21:56:16.462Z,6.40
2019-04-21T21:58:47.890Z,5.50
2019-04-21T22:01:23.029Z,6.23
2019-04-21T22:03:59.206Z,6.07
2019-04-21T22:06:23.985Z,5.57
2019-04-21T22:08:52.237Z,5.63
2019-04-21T22:11:22.165Z,5.67
2019-04-21T22:13:57.897Z,5.33
2019-04-21T22:16:27.524Z,5.07
2019-04-21T22:19:14.271Z,5.10
2019-04-21T22:21:41.281Z,4.97
2019-04-21T22:24:00.744Z,4.73
2019-04-21T22:26:25.486Z,5.17
2019-04-21T22:28:55.592Z,6.30
2019-04-21T22:31:31.891Z,6.27
2019-04-21T22:34:02.207Z,9.10
2019-04-21T22:36:44.698Z,9.90
2019-04-21T22:39:19.433Z,11.80
2019-04-21T22:41:39.206Z,12.20
2019-04-21T22:44:02.796Z,9.47
2019-04-21T22:46:32.697Z,10.20
2019-04-21T22:49:07.502Z,9.60
2019-04-21T22:51:38.355Z,8.50
2019-04-21T22:54:06.066Z,10.00
2019-04-21T22:56:36.088Z,10.00
2019-04-21T22:59:12.191Z,9.17
2019-04-21T23:01:42.480Z,11.20
2019-04-21T23:04:08.933Z,10.73
2019-04-21T23:06:39.615Z,10.80
2019-04-21T23:09:10.874Z,10.63
2019-04-21T23:11:45.425Z,10.07
2019-04-21T23:14:16.864Z,11.27
2019-04-21T23:16:47.940Z,10.43
2019-04-21T23:19:32.110Z,12.10
2019-04-21T23:22:04.168Z,9.93
2019-04-21T23:24:39.895Z,11.13
2019-04-21T23:27:05.935Z,10.80
2019-04-21T23:29:48.303Z,9.90
2019-04-21T23:32:08.384Z,9.50
2019-04-21T23:34:28.957Z,10.03
2019-04-21T23:37:03.199Z,10.13
2019-04-21T23:39:30.271Z,10.60
2019-04-21T23:41:57.758Z,10.40
2019-04-21T23:44:28.219Z,10.67
2019-04-21T23:47:03.046Z,10.90
2019-04-21T23:49:41.671Z,9.83
2019-04-21T23:52:04.652Z,11.83
2019-04-21T23:54:31.424Z,11.03
2019-04-21T23:57:02.826Z,10.60
2019-04-21T23:59:38.568Z,11.57
